createdAt,value
2024-05-09T00:01:55.519Z,102274.34
2024-05-09T00:04:25.204Z,102269.78
2024-05-09T00:06:54.559Z,102273.63
2024-05-09T00:09:24.367Z,102272.69
2024-05-09T00:11:53.861Z,102280.84
2024-05-09T00:14:26.648Z,102276.41
2024-05-09T00:16:56.253Z,102278.44
2024-05-09T00:19:25.930Z,102277.72
2024-05-09T00:21:55.374Z,102268.31
2024-05-09T00:24:24.792Z,102276.38
2024-05-09T00:26:54.376Z,102274.84
2024-05-09T00:29:26.998Z,102267.50
2024-05-09T00:31:56.751Z,102272.19
2024-05-09T00:34:28.791Z,102270.94
2024-05-09T00:36:58.249Z,102277.44
2024-05-09T00:39:27.570Z,102273.09
2024-05-09T00:41:57.214Z,102275.97
2024-05-09T00:44:29.197Z,102272.97
2024-05-09T00:46:59.011Z,102268.88
2024-05-09T00:49:29.506Z,102269.94
2024-05-09T00:52:00.118Z,102267.41
2024-05-09T00:54:30.019Z,102268.72
2024-05-09T00:56:59.589Z,102266.81
2024-05-09T00:59:33.578Z,102259.81
2024-05-09T01:02:03.382Z,102268.25
2024-05-09T01:05:05.109Z,102270.97
2024-05-09T01:07:34.664Z,102268.06
2024-05-09T01:10:05.547Z,102268.88
2024-05-09T01:12:36.907Z,102273.69
2024-05-09T01:15:09.684Z,102267.56
2024-05-09T01:17:39.696Z,102269.69
2024-05-09T01:20:13.140Z,102269.81
2024-05-09T01:22:50.213Z,102276.03
2024-05-09T01:25:22.487Z,102276.97
2024-05-09T01:27:51.955Z,102272.78
2024-05-09T01:30:27.982Z,102277.22
2024-05-09T01:33:03.698Z,102281.78
2024-05-09T01:35:33.447Z,102287.16
2024-05-09T01:38:02.870Z,102283.91
2024-05-09T01:40:38.684Z,102284.75
2024-05-09T01:43:11.149Z,102281.72
2024-05-09T01:45:41.782Z,102276.66
2024-05-09T01:48:12.124Z,102283.41
2024-05-09T01:50:43.210Z,102280.25
2024-05-09T01:53:14.746Z,102273.28
2024-05-09T01:55:47.271Z,102274.38
2024-05-09T01:58:17.288Z,102277.22
2024-05-09T02:00:48.112Z,102275.53
2024-05-09T02:03:18.140Z,102267.94
2024-05-09T02:05:49.609Z,102269.63
2024-05-09T02:08:22.232Z,102269.53
2024-05-09T02:10:54.449Z,102274.31
2024-05-09T02:13:23.779Z,102271.88
2024-05-09T02:15:53.836Z,102277.38
2024-05-09T02:18:23.398Z,102276.03
2024-05-09T02:20:53.175Z,102278.66
2024-05-09T02:23:22.671Z,102272.00
2024-05-09T02:25:54.880Z,102276.47
2024-05-09T02:28:24.596Z,102275.44
2024-05-09T02:30:54.054Z,102275.75
2024-05-09T02:33:21.291Z,102281.34
2024-05-09T02:35:51.130Z,102274.97
2024-05-09T02:38:17.972Z,102268.34
2024-05-09T02:40:47.439Z,102259.72
2024-05-09T02:43:16.962Z,102266.03
2024-05-09T02:45:46.445Z,102262.16
2024-05-09T02:48:14.100Z,102256.34
2024-05-09T03:12:08.853Z,102271.56
2024-05-09T03:20:33.051Z,102251.19
2024-05-09T04:02:57.539Z,102268.91
2024-05-09T04:08:08.016Z,102268.91
2024-05-09T04:10:50.391Z,102269.13
2024-05-09T04:27:59.178Z,102269.13
2024-05-09T04:36:19.912Z,102279.03
2024-05-09T04:53:17.924Z,102286.53
2024-05-09T05:23:13.720Z,102296.13
2024-05-09T05:55:03.561Z,102307.44
2024-05-09T07:09:14.727Z,102273.59
2024-05-09T07:28:10.377Z,102272.78
2024-05-09T07:34:43.818Z,102277.00
2024-05-09T07:36:55.570Z,102275.25
2024-05-09T07:44:06.916Z,102277.34
2024-05-09T07:54:11.296Z,102270.25
2024-05-09T07:58:01.444Z,102270.66
2024-05-09T08:53:51.236Z,102260.88
2024-05-09T08:56:25.073Z,102255.81
2024-05-09T09:02:03.036Z,102256.81
2024-05-09T09:04:45.457Z,102251.31
2024-05-09T09:07:14.497Z,102249.34
2024-05-09T09:09:55.257Z,102249.16
2024-05-09T09:12:30.544Z,102248.06
2024-05-09T09:15:44.270Z,102251.53
2024-05-09T09:18:27.111Z,102248.72
2024-05-09T09:21:03.622Z,102245.91
2024-05-09T09:23:45.126Z,102247.13
2024-05-09T09:26:29.724Z,102239.53
2024-05-09T09:29:04.231Z,102245.19
2024-05-09T09:31:43.071Z,102250.22
2024-05-09T09:34:12.624Z,102249.00
2024-05-09T09:36:48.479Z,102243.56
2024-05-09T09:39:32.085Z,102239.63
2024-05-09T09:42:50.073Z,102242.75
2024-05-09T09:45:32.150Z,102236.28
2024-05-09T09:48:33.802Z,102238.00
2024-05-09T09:51:14.051Z,102242.00
2024-05-09T09:54:22.648Z,102239.56
2024-05-09T10:00:50.278Z,102241.72
2024-05-09T10:03:51.762Z,102237.13
2024-05-09T10:06:54.117Z,102235.91
2024-05-09T10:09:33.396Z,102226.97
2024-05-09T10:12:23.816Z,102236.53
2024-05-09T10:15:13.054Z,102233.84
2024-05-09T10:18:10.458Z,102236.53
2024-05-09T10:21:09.196Z,102234.03
2024-05-09T10:23:55.184Z,102229.50
2024-05-09T10:26:44.822Z,102237.78
2024-05-09T10:29:27.270Z,102236.34
2024-05-09T10:32:00.899Z,102228.84
2024-05-09T10:34:50.049Z,102227.41
2024-05-09T10:37:26.016Z,102233.63
2024-05-09T10:39:58.231Z,102220.53
2024-05-09T10:42:31.269Z,102214.31
2024-05-09T10:45:09.805Z,102209.13
2024-05-09T10:48:16.333Z,102214.91
2024-05-09T10:50:50.810Z,102212.22
2024-05-09T10:56:59.468Z,102206.13
2024-05-09T10:59:37.840Z,102201.78
2024-05-09T11:02:22.817Z,102195.34
2024-05-09T11:05:04.558Z,102196.38
2024-05-09T11:07:45.551Z,102196.78
2024-05-09T11:10:24.350Z,102193.69
2024-05-09T11:13:34.740Z,102190.78
2024-05-09T11:16:22.065Z,102182.47
2024-05-09T11:19:10.609Z,102181.63
2024-05-09T11:21:39.873Z,102183.91
2024-05-09T11:24:12.945Z,102175.84
2024-05-09T11:26:41.431Z,102176.91
2024-05-09T11:29:22.632Z,102179.63
2024-05-09T11:32:06.606Z,102171.94
2024-05-09T11:34:59.286Z,102178.56
2024-05-09T11:37:32.713Z,102171.34
2024-05-09T11:40:39.480Z,102171.13
2024-05-09T11:47:01.680Z,102162.78
2024-05-09T11:51:57.991Z,102157.63
2024-05-09T12:08:04.141Z,102146.81
2024-05-09T12:10:35.809Z,102148.25
2024-05-09T12:13:17.938Z,102139.94
2024-05-09T12:15:53.582Z,102149.28
2024-05-09T12:25:32.007Z,102137.44
2024-05-09T12:28:14.238Z,102129.34
2024-05-09T12:31:05.427Z,102122.13
2024-05-09T12:33:59.655Z,102125.03
2024-05-09T12:36:58.276Z,102119.63
2024-05-09T12:40:35.622Z,102109.03
2024-05-09T12:43:25.444Z,102109.66
2024-05-09T12:46:04.330Z,102107.78
2024-05-09T12:48:37.303Z,102101.59
2024-05-09T12:51:09.856Z,102104.88
2024-05-09T12:53:51.117Z,102100.91
2024-05-09T12:56:28.923Z,102089.28
2024-05-09T12:59:33.689Z,102084.94
2024-05-09T13:02:24.393Z,102077.66
2024-05-09T13:05:26.722Z,102082.81
2024-05-09T13:07:59.709Z,102076.41
2024-05-09T13:11:08.785Z,102069.13
2024-05-09T13:14:00.398Z,102066.44
2024-05-09T13:16:45.442Z,102062.66
2024-05-09T13:19:27.630Z,102056.19
2024-05-09T13:22:08.907Z,102053.47
2024-05-09T13:24:49.667Z,102049.47
2024-05-09T13:27:43.679Z,102053.13
2024-05-09T13:30:42.759Z,102035.19
2024-05-09T13:33:45.179Z,102043.25
2024-05-09T13:36:56.989Z,102042.19
2024-05-09T13:40:27.107Z,102047.09
2024-05-09T13:43:06.596Z,102039.34
2024-05-09T13:46:04.928Z,102023.47
2024-05-09T13:48:52.462Z,102021.94
2024-05-09T13:51:38.986Z,102020.41
2024-05-09T13:54:15.286Z,102024.03
2024-05-09T14:00:27.303Z,102021.09
2024-05-09T14:03:37.079Z,102010.47
2024-05-09T14:06:34.052Z,102019.91
2024-05-09T14:09:19.402Z,102014.44
2024-05-09T14:12:21.020Z,102015.03
2024-05-09T14:15:09.924Z,102013.53
2024-05-09T14:18:12.497Z,102001.78
2024-05-09T14:21:05.968Z,102009.25
2024-05-09T14:24:31.520Z,102008.41
2024-05-09T14:27:18.491Z,102004.63
2024-05-09T14:30:09.554Z,102000.25
2024-05-09T14:32:56.170Z,101988.81
2024-05-09T14:35:27.214Z,101990.84
2024-05-09T14:38:02.595Z,101994.34
2024-05-09T14:40:43.895Z,101976.97
2024-05-09T14:43:25.149Z,101977.53
2024-05-09T14:45:58.020Z,101974.22
2024-05-09T14:48:31.839Z,101973.66
2024-05-09T14:51:07.547Z,101967.34
2024-05-09T14:53:54.562Z,101969.47
2024-05-09T14:56:47.275Z,101979.00
2024-05-09T14:59:50.713Z,101961.34
2024-05-09T15:03:06.376Z,101960.50
2024-05-09T15:06:32.862Z,101950.69
2024-05-09T15:09:41.583Z,101947.66
2024-05-09T15:12:46.404Z,101948.38
2024-05-09T15:15:34.050Z,101944.66
2024-05-09T15:18:14.270Z,101950.59
2024-05-09T15:20:57.493Z,101943.38
2024-05-09T15:30:37.784Z,101938.66
2024-05-09T15:34:05.314Z,101941.06
2024-05-09T15:37:07.614Z,101931.47
2024-05-09T15:39:59.114Z,101929.44
2024-05-09T15:42:53.238Z,101925.16
2024-05-09T15:45:57.863Z,101923.81
2024-05-09T15:58:10.229Z,101915.00
2024-05-09T16:01:06.703Z,101916.38
2024-05-09T16:03:56.940Z,101913.22
2024-05-09T16:07:01.217Z,101910.44
2024-05-09T16:09:41.003Z,101910.84
2024-05-09T16:12:33.711Z,101909.94
2024-05-09T16:18:11.963Z,101904.06
2024-05-09T16:20:55.810Z,101905.41
2024-05-09T16:23:32.071Z,101894.88
2024-05-09T16:26:26.210Z,101907.97
2024-05-09T16:29:28.324Z,101907.91
2024-05-09T16:32:07.267Z,101900.16
2024-05-09T16:34:54.689Z,101904.97
2024-05-09T16:37:30.171Z,101899.44
2024-05-09T16:56:50.113Z,101910.53
2024-05-09T17:10:29.637Z,101895.66
2024-05-09T17:13:21.457Z,101899.84
2024-05-09T17:17:01.921Z,101900.66
2024-05-09T17:20:32.197Z,101901.47
2024-05-09T17:27:02.194Z,101892.81
2024-05-09T17:30:29.048Z,101897.34
2024-05-09T17:36:44.794Z,101892.50
2024-05-09T17:40:00.818Z,101897.69
2024-05-09T17:42:41.878Z,101904.19
2024-05-09T17:52:48.452Z,101904.03
2024-05-09T17:56:05.110Z,101894.03
2024-05-09T18:02:21.923Z,101897.44
2024-05-09T18:08:50.543Z,101897.66
2024-05-09T18:11:57.226Z,101898.81
2024-05-09T18:14:37.492Z,101902.88
2024-05-09T18:17:16.385Z,101903.88
2024-05-09T18:19:58.568Z,101913.25
2024-05-09T18:22:31.175Z,101903.91
2024-05-09T18:25:12.907Z,101909.78
2024-05-09T18:27:44.637Z,101899.63
2024-05-09T18:30:28.257Z,101911.63
2024-05-09T18:33:18.306Z,101902.81
2024-05-09T18:35:53.367Z,101905.84
2024-05-09T18:38:29.763Z,101908.56
2024-05-09T18:41:03.235Z,101914.56
2024-05-09T18:43:44.932Z,101906.91
2024-05-09T18:46:27.925Z,101924.59
2024-05-09T18:49:01.293Z,101910.91
2024-05-09T18:51:40.202Z,101914.78
2024-05-09T18:54:18.913Z,101904.78
2024-05-09T18:57:04.230Z,101925.66
2024-05-09T18:59:55.251Z,101931.69
2024-05-09T19:02:39.126Z,101932.16
2024-05-09T19:08:48.579Z,101933.81
2024-05-09T19:11:29.854Z,101938.00
2024-05-09T19:14:19.753Z,101934.34
2024-05-09T19:20:25.497Z,101941.31
2024-05-09T19:26:20.979Z,101940.31
2024-05-09T19:29:24.507Z,101942.16
2024-05-09T19:31:59.842Z,101939.34
2024-05-09T19:34:44.669Z,101935.78
2024-05-09T19:37:21.263Z,101940.63
2024-05-09T19:40:06.656Z,101933.47
2024-05-09T19:42:38.999Z,101945.00
2024-05-09T19:45:16.196Z,101947.16
2024-05-09T19:47:56.715Z,101946.47
2024-05-09T19:50:43.638Z,101942.81
2024-05-09T19:53:22.882Z,101952.81
2024-05-09T19:56:17.986Z,101950.47
2024-05-09T19:59:15.115Z,101952.47
2024-05-09T20:01:58.938Z,101945.44
2024-05-09T20:04:52.285Z,101951.59
2024-05-09T20:07:37.141Z,101949.25
2024-05-09T20:10:26.216Z,101955.03
2024-05-09T20:28:03.869Z,101957.63
2024-05-09T20:33:38.955Z,101966.25
2024-05-09T20:36:11.936Z,101962.22
2024-05-09T21:01:39.892Z,101962.50
2024-05-09T21:04:31.263Z,101956.47
2024-05-09T21:07:19.223Z,101959.47
2024-05-09T21:10:22.424Z,101955.44
2024-05-09T21:13:10.954Z,101961.06
2024-05-09T21:15:46.337Z,101959.88
2024-05-09T21:18:30.745Z,101964.53
2024-05-09T21:21:09.799Z,101974.47
2024-05-09T21:23:49.728Z,101972.13
2024-05-09T21:26:42.590Z,101971.59
2024-05-09T21:29:30.722Z,101966.72
2024-05-09T21:32:30.943Z,101958.38
2024-05-09T21:35:18.968Z,101968.63
2024-05-09T21:38:15.250Z,101969.47
2024-05-09T21:41:22.229Z,101964.34
2024-05-09T21:51:25.111Z,101961.84
2024-05-09T21:54:04.667Z,101965.63
2024-05-09T21:56:43.166Z,101955.72
2024-05-09T21:59:21.040Z,101957.22
2024-05-09T22:01:56.782Z,101953.22
2024-05-09T22:04:38.310Z,101956.19
2024-05-09T22:07:24.817Z,101961.13
2024-05-09T22:10:38.150Z,101959.44
2024-05-09T22:16:27.361Z,101958.53
2024-05-09T22:19:05.926Z,101962.16
2024-05-09T22:21:44.521Z,101946.50
2024-05-09T22:27:20.498Z,101958.75
2024-05-09T22:30:09.008Z,101955.41
2024-05-09T22:39:16.293Z,101957.25
2024-05-09T22:45:36.489Z,101958.41
2024-05-09T22:46:16.498Z,101962.63
2024-05-09T22:49:39.492Z,101951.22
2024-05-09T22:52:28.513Z,101956.28
2024-05-09T22:58:40.915Z,101961.84
2024-05-09T23:01:50.199Z,101961.69
2024-05-09T23:04:56.011Z,101951.66
2024-05-09T23:07:32.040Z,101962.75
2024-05-09T23:10:35.963Z,101960.38
2024-05-09T23:13:54.555Z,101963.63
2024-05-09T23:16:47.459Z,101954.13
2024-05-09T23:22:52.595Z,101959.03
2024-05-09T23:25:47.465Z,101952.06
2024-05-09T23:28:42.876Z,101945.34
2024-05-09T23:31:28.887Z,101949.00
2024-05-09T23:34:15.952Z,101949.94
2024-05-09T23:36:51.305Z,101944.13
2024-05-09T23:39:30.030Z,101940.06
2024-05-09T23:42:23.915Z,101940.38
2024-05-09T23:45:03.811Z,101944.81
2024-05-09T23:47:38.422Z,101937.13
2024-05-09T23:50:33.808Z,101935.47
2024-05-09T23:53:11.123Z,101934.38
